Aérodrome :
LOGIN :

S'inscrire | Disclaimer

   EN    FR    IT 

 










Légende :    VFR   VFR Marginal   IFR   IFR Intensif   IFR Très Intensif
Visi : 
Plafond : 
>= 8 km
>= 3000ft
5 à 8 km
1000 à 3000 ft
1500m à 5 km
500 à 1000 ft
800 à 1500m
200 à 500 ft
< 800m
< 200 ft
Symboles :   Orages  Brouillard  Fortes neiges  Fortes précipitations  Vent > 20 kt
SIGMETs :   Divers  Orages  Givrage  Turbulence  Onde Orograph.  Cendres Volcan.







- Altitude de l'aérodrome : 39 ft


ETNH - Hohn AB

DERNIER METAR :
  • 210220Z 29012KT 9999 BKN008 15/14 Q1012 GRN

METARs EXPIRÉS :
  • 210120Z 27008KT 9999 BKN008 15/15 Q1012 GRN
  • 210020Z 27008KT 9999 BKN008 16/15 Q1013 GRN

TAF TAF ETNH
Valide du 20 à 23h jusqu'au 21 à 11h UTC


202211Z 2023/2111 26015KT 9999 NSW FEW015 BKN040
BECMG 2022/2024 25008KT 9999 NSW BKN007 BKN030
BECMG 2102/2104 30010KT 9999 NSW BKN010 BKN040
BECMG 2104/2106 29012KT 9999 NSW FEW010 BKN040 BY ETGL
Pas de NOTAMs connus pour ce terrain.



MET'MAP, la Météo Aéronautique d'un coup d'oeil ! - Copyright ORBIFLY Décembre 2007 - Disclaimer

ORBIFLY MET'MAP TEAM :

Programmation & Développement : Alexandra Zaïnal
Conception & Développement : Baudouin d'Aumeries
Co-Programmation & Développement : Marc-Olivier Méhu
Soutien technique & logistique : Manuel Goepfert

Contact : metmap@orbifly.com




SOURCES & CREDITS :

   NOAA